KGPM

Details ICAO KGPM
Name GRAND PRAIRIE MUNI
Region United States
Timezone America/Chicago (UTC-6.0)
Plans Departing 8
Arriving 7
Stats Elevation 587 ft / 179 m (AMSL)
Location 32.698782° -97.046917°
Runways 1
Magnetic Variation 3.440° E
Sunrise 2017-12-16 13:25:10 UTC / 2017-12-16 07:25:10 Local
Sunset 2017-12-16 23:25:30 UTC / 2017-12-16 17:25:30 Local
Advertisement - Login to hide

Runways

ID Width Length Bearing (true) Bearing (mag) Surface Threshold Offset Overrun Length
17 75 ft / 23 m 4,013 ft / 1,223 m 180.34° 176.90° Concrete 0 ft / 0 m 0 ft / 0 m
35 75 ft / 23 m 4,013 ft / 1,223 m 0.34° 356.90° Concrete 0 ft / 0 m 0 ft / 0 m

Map

Weather


0- 5 10 15 20 25 30 35+ Temperature / ° C

Clouds and Precipitation
Forecast for 2017-12-17 00:00 UTC. Updated 8 minutes ago

Ground ~20,000 ft ~40,000 ft Winds

METAR

KGPM 161850Z 16009G15KT 10SM SKC 15/M02 A3009

TAF

Not found

Frequencies

Recorded 118.47 MHz AWOS 3
Ground 121.15 MHz GND
Approach 135.97 MHz RGNL APP/DEP
Unicom 128.55 MHz CTAF/UNICOM
Tower 128.55 MHz TWR
Warning: Do not use this data for real-world aviation or navigation. No guarantee of current accuracy is given.